Main page
METAR-TAF:

METAR-TAF

Airports :

Lannion – Côte de Granit Airport

Lannion, France

latitude: 48-45N, longitude: 003-28W, elevation: 89 m

Current weather observation

The report was made 31 minutes ago, at 16:00 UTC
Wind 13 kt from the East/Southeast, varying between East and South/Southeast
Temperature 18°C
Humidity 39%
Pressure 1015 hPa
Visibility 10 km or more
no clouds below 1500 m and no cumulonimbus

METAR: LFRO 041600Z AUTO 12013KT 090V150 CAVOK 18/04 Q1015

Time: 18:31 (16:31 UTC)


TAF: missing

Weather observations and forecasts of more than 4000 airports (METAR and TAF reports).

The available stations are represented by yellow and red dots on the map.

Hover mouse over dot to see the name of the station.

Then click to see weather observations and forecasts.

To change the map : click on the green buttons with a black cross to zoom in, on the green button with a dash to zoom out, or on the green arrows for adjacent maps.


METAR-TAF: